createdAt,value
2022-08-18T00:04:08.694Z,98565.8
2022-08-18T00:10:31.671Z,98571.5
2022-08-18T00:16:06.597Z,98572.6
2022-08-18T00:21:41.555Z,98573
2022-08-18T00:27:16.270Z,98572.4
2022-08-18T00:32:53.249Z,98569.1
2022-08-18T00:38:29.526Z,98568.5
2022-08-18T00:44:26.943Z,98565.5
2022-08-18T00:49:59.810Z,98556.2
2022-08-18T00:55:34.453Z,98550.9
2022-08-18T01:01:10.127Z,98541.2
2022-08-18T01:06:45.298Z,98537.5
2022-08-18T01:12:47.441Z,98530.7
2022-08-18T01:18:22.695Z,98514.6
2022-08-18T01:23:57.663Z,98506.6
2022-08-18T01:29:32.420Z,98498.6
2022-08-18T01:35:07.168Z,98495.3
2022-08-18T01:41:31.450Z,98497.2
2022-08-18T01:47:07.981Z,98477.7
2022-08-18T01:52:42.741Z,98480.2
2022-08-18T01:58:18.543Z,98485.7
2022-08-18T02:04:02.533Z,98490.9
2022-08-18T02:10:17.017Z,98498.3
2022-08-18T02:15:51.948Z,98499.4
2022-08-18T02:21:26.655Z,98495.9
2022-08-18T02:27:01.954Z,98502.4
2022-08-18T02:32:36.539Z,98507.3
2022-08-18T02:38:17.907Z,98499
2022-08-18T02:44:14.788Z,98498.4
2022-08-18T02:49:47.600Z,98501.2
2022-08-18T02:55:23.334Z,98504.9
2022-08-18T03:00:59.345Z,98509.6
2022-08-18T03:06:34.815Z,98506.5
2022-08-18T03:12:10.725Z,98508.4
2022-08-18T03:17:45.529Z,98503.8
2022-08-18T03:23:31.593Z,98500.5
2022-08-18T03:29:09.185Z,98500
2022-08-18T03:34:43.954Z,98500.6
2022-08-18T03:40:19.250Z,98506.6
2022-08-18T03:45:54.696Z,98505.5
2022-08-18T03:51:29.758Z,98501.7
2022-08-18T03:57:04.567Z,98499.4
2022-08-18T04:02:40.319Z,98502.4
2022-08-18T04:08:14.925Z,98508
2022-08-18T04:13:49.803Z,98501.8
2022-08-18T04:19:28.722Z,98502.5
2022-08-18T04:25:03.763Z,98507.3
2022-08-18T04:30:39.449Z,98511.2
2022-08-18T04:36:21.595Z,98507.3
2022-08-18T04:42:18.666Z,98507.9
2022-08-18T04:47:52.681Z,98514.2
2022-08-18T04:53:29.305Z,98511.2
2022-08-18T04:59:04.196Z,98512.7
2022-08-18T05:04:39.240Z,98517.7
2022-08-18T05:10:14.135Z,98518.5
2022-08-18T05:16:19.937Z,98519.9
2022-08-18T05:22:04.161Z,98532.1
2022-08-18T05:27:43.196Z,98531.3
2022-08-18T05:33:18.082Z,98534.2
2022-08-18T05:38:53.944Z,98537.7
2022-08-18T05:44:50.603Z,98538.7
2022-08-18T05:50:22.992Z,98552.4
2022-08-18T05:55:57.876Z,98552.7
2022-08-18T06:01:32.963Z,98551
2022-08-18T06:07:07.970Z,98557.2
2022-08-18T06:12:47.742Z,98562.5
2022-08-18T06:18:23.678Z,98569.5
2022-08-18T06:23:59.526Z,98573.9
2022-08-18T06:29:34.674Z,98582.3
2022-08-18T06:35:09.550Z,98592
2022-08-18T06:40:44.380Z,98592.1
2022-08-18T06:46:19.206Z,98596.5
2022-08-18T06:51:56.153Z,98606.9
2022-08-18T06:57:31.026Z,98610
2022-08-18T07:03:05.864Z,98608.5
2022-08-18T07:08:40.612Z,98614
2022-08-18T07:14:17.612Z,98614.7
2022-08-18T07:19:52.500Z,98611.1
2022-08-18T07:25:49.321Z,98618.9
2022-08-18T07:31:24.298Z,98624
2022-08-18T07:36:59.641Z,98629.3
2022-08-18T07:43:02.997Z,98637.8
2022-08-18T07:48:40.931Z,98644.4
2022-08-18T07:54:50.900Z,98643
2022-08-18T08:01:00.723Z,98653.7
2022-08-18T08:06:36.822Z,98660.5
2022-08-18T08:12:11.688Z,98664
2022-08-18T08:17:53.178Z,98661.4
2022-08-18T08:23:29.297Z,98673.9
2022-08-18T08:29:05.085Z,98686.6
2022-08-18T08:34:47.674Z,98686.4
2022-08-18T08:40:29.405Z,98691.2
2022-08-18T08:46:04.498Z,98693.6
2022-08-18T08:51:41.235Z,98694.5
2022-08-18T08:57:22.115Z,98701.3
2022-08-18T09:02:56.942Z,98706
2022-08-18T09:08:31.996Z,98707
2022-08-18T09:14:07.315Z,98707.4
2022-08-18T09:19:42.476Z,98719
2022-08-18T09:25:17.550Z,98718.9
2022-08-18T09:30:52.916Z,98726.8
2022-08-18T09:36:27.935Z,98726.6
2022-08-18T09:42:30.652Z,98738.6
2022-08-18T09:48:08.604Z,98743.5
2022-08-18T09:53:46.118Z,98750.8
2022-08-18T09:59:21.273Z,98751.3
2022-08-18T10:05:00.689Z,98753
2022-08-18T10:11:10.173Z,98760.4
2022-08-18T10:17:24.895Z,98762.9
2022-08-18T10:23:09.597Z,98762.5
2022-08-18T10:28:44.716Z,98769.5
2022-08-18T10:34:20.184Z,98780.8
2022-08-18T10:40:02.279Z,98777.1
2022-08-18T13:10:51.577Z,98791.4
2022-08-18T13:16:55.619Z,98795.5
2022-08-18T13:22:34.108Z,98787.7
2022-08-18T13:28:10.405Z,98789.2
2022-08-18T13:34:04.749Z,98774.2
2022-08-18T13:39:57.816Z,98769.5
2022-08-18T13:45:41.894Z,98775.8
2022-08-18T13:51:17.657Z,98771
2022-08-18T13:56:52.726Z,98775.5
2022-08-18T14:02:29.171Z,98783.5
2022-08-18T14:08:05.332Z,98798.3
2022-08-18T14:13:44.562Z,98812.2
2022-08-18T14:19:23.375Z,98820.2
2022-08-18T14:24:58.288Z,98816.7
2022-08-18T14:30:39.416Z,98825.4
2022-08-18T14:36:30.983Z,98830.1
2022-08-18T14:42:55.229Z,98833.3
2022-08-18T14:48:28.605Z,98839.1
2022-08-18T14:54:03.666Z,98832.6
2022-08-18T14:59:39.590Z,98841.5
2022-08-18T15:05:25.171Z,98837.5
2022-08-18T15:11:03.408Z,98843.4
2022-08-18T15:16:40.404Z,98847
2022-08-18T15:22:22.012Z,98850.2
2022-08-18T15:28:01.334Z,98856.4
2022-08-18T15:33:36.802Z,98866.5
2022-08-18T15:39:14.731Z,98871
2022-08-18T15:45:14.368Z,98871.7
2022-08-18T15:50:51.709Z,98878.3
2022-08-18T15:56:26.513Z,98882.8
2022-08-18T16:02:01.439Z,98872.8
2022-08-18T16:07:45.772Z,98875.5
2022-08-18T16:13:20.612Z,98878.9
2022-08-18T16:18:55.927Z,98887.3
2022-08-18T16:24:30.947Z,98888.7
2022-08-18T16:30:05.797Z,98889.4
2022-08-18T16:35:45.876Z,98894.9
2022-08-18T16:41:20.677Z,98900
2022-08-18T16:47:13.982Z,98908.2
2022-08-18T16:52:50.062Z,98903.5
2022-08-18T16:58:25.545Z,98908.3
2022-08-18T17:04:02.534Z,98903
2022-08-18T17:09:38.267Z,98887
2022-08-18T17:15:13.051Z,98885.4
2022-08-18T17:20:47.835Z,98892.3
2022-08-18T17:26:24.450Z,98900.1
2022-08-18T17:32:04.124Z,98900.5
2022-08-18T17:37:38.960Z,98898
2022-08-18T17:43:36.031Z,98895.6
2022-08-18T17:49:09.093Z,98895
2022-08-18T17:54:44.161Z,98893.8
2022-08-18T18:00:19.517Z,98893.2
2022-08-18T18:05:54.245Z,98900.9
2022-08-18T18:11:35.021Z,98897.6
2022-08-18T18:17:14.929Z,98908.8
2022-08-18T18:22:49.777Z,98911.2
2022-08-18T18:28:24.411Z,98915.9
2022-08-18T18:33:59.089Z,98917.3
2022-08-18T18:39:35.432Z,98923.9
2022-08-18T18:45:10.909Z,98927.5
2022-08-18T18:51:10.374Z,98940.4
2022-08-18T18:56:47.242Z,98951.4
2022-08-18T19:02:35.866Z,98959
2022-08-18T19:08:10.773Z,98957.1
2022-08-18T19:13:55.389Z,98959.7
2022-08-18T19:19:39.760Z,98974.4
2022-08-18T19:25:14.620Z,98982.4
2022-08-18T19:30:50.362Z,98995
2022-08-18T19:36:27.260Z,98996.9
2022-08-18T19:42:23.934Z,99001.7
2022-08-18T19:47:56.644Z,99020.8
2022-08-18T19:53:31.370Z,99036.5
2022-08-18T19:59:21.936Z,99042
2022-08-18T20:04:56.964Z,99050.6
2022-08-18T20:10:31.805Z,99058
2022-08-18T20:16:07.364Z,99062.3
2022-08-18T20:21:42.279Z,99069.2
2022-08-18T20:27:17.039Z,99073.2
2022-08-18T20:32:52.756Z,99077.4
2022-08-18T20:38:28.225Z,99076
2022-08-18T20:44:30.350Z,99080.2
2022-08-18T20:50:03.059Z,99090.8
2022-08-18T20:55:38.996Z,99093
2022-08-18T21:01:16.176Z,99094.7
2022-08-18T21:06:52.373Z,99103.8
2022-08-18T21:12:27.978Z,99111.7
2022-08-18T21:18:02.609Z,99105.5
2022-08-18T21:23:37.548Z,99110.2
2022-08-18T21:29:12.723Z,99114.7
2022-08-18T21:34:47.913Z,99105.2
2022-08-18T21:40:30.250Z,99115.3
2022-08-18T21:46:05.208Z,99121.6
2022-08-18T21:51:40.020Z,99127.3
2022-08-18T21:57:15.979Z,99125
2022-08-18T22:02:50.823Z,99125.5
2022-08-18T22:08:27.358Z,99125.5
2022-08-18T22:14:03.837Z,99124.4
2022-08-18T22:19:38.619Z,99123.3
2022-08-18T22:25:13.654Z,99122.8
2022-08-18T22:30:48.517Z,99124.8
2022-08-18T22:36:23.463Z,99131.6
2022-08-18T22:42:20.297Z,99132.7
2022-08-18T22:47:52.895Z,99127.2
2022-08-18T22:53:27.573Z,99134.7
2022-08-18T22:59:20.097Z,99136.4
2022-08-18T23:04:55.972Z,99140
2022-08-18T23:10:30.641Z,99143.3
2022-08-18T23:16:32.907Z,99148.9
2022-08-18T23:22:09.368Z,99153
2022-08-18T23:27:44.164Z,99155.5
2022-08-18T23:33:19.084Z,99147.3
2022-08-18T23:38:53.879Z,99144.6
2022-08-18T23:44:50.503Z,99150.7
2022-08-18T23:50:27.010Z,99148
2022-08-18T23:56:03.887Z,99151.3
